createdAt,value
2022-07-26T00:00:13.443Z,73.57
2022-07-26T00:02:47.732Z,74.26
2022-07-26T00:05:16.634Z,74.18
2022-07-26T00:07:44.347Z,74.10
2022-07-26T00:10:11.865Z,74.20
2022-07-26T00:12:39.255Z,74.16
2022-07-26T00:15:08.751Z,74.21
2022-07-26T00:17:35.626Z,74.09
2022-07-26T00:20:02.581Z,73.75
2022-07-26T00:22:35.555Z,73.57
2022-07-26T00:25:06.175Z,73.66
2022-07-26T00:27:37.239Z,73.41
2022-07-26T00:30:10.090Z,73.45
2022-07-26T00:32:38.244Z,73.29
2022-07-26T00:35:06.973Z,73.26
2022-07-26T00:37:33.638Z,73.08
2022-07-26T00:40:00.737Z,73.05
2022-07-26T00:42:27.425Z,72.89
2022-07-26T00:44:54.225Z,72.88
2022-07-26T00:47:21.210Z,72.95
2022-07-26T00:49:47.903Z,72.86
2022-07-26T00:52:14.896Z,72.85
2022-07-26T00:54:45.584Z,72.84
2022-07-26T00:57:14.938Z,72.90
2022-07-26T00:59:43.047Z,72.92
2022-07-26T01:02:10.467Z,72.98
2022-07-26T01:04:37.304Z,73.07
2022-07-26T01:07:14.977Z,73.16
2022-07-26T01:09:42.822Z,73.27
2022-07-26T01:12:09.982Z,73.44
2022-07-26T01:14:36.932Z,73.45
2022-07-26T01:17:03.780Z,73.65
2022-07-26T01:19:30.808Z,73.79
2022-07-26T01:21:57.492Z,74.05
2022-07-26T01:24:24.139Z,74.17
2022-07-26T01:26:51.128Z,74.21
2022-07-26T01:29:17.988Z,74.37
2022-07-26T01:31:44.801Z,74.45
2022-07-26T01:34:12.133Z,74.57
2022-07-26T01:36:39.799Z,74.79
2022-07-26T01:39:07.084Z,75.04
2022-07-26T01:41:37.964Z,75.01
2022-07-26T01:44:07.426Z,75.11
2022-07-26T01:46:35.996Z,75.11
2022-07-26T01:49:03.359Z,75.15
2022-07-26T01:51:30.515Z,75.22
2022-07-26T01:53:57.470Z,75.44
2022-07-26T01:56:24.173Z,75.69
2022-07-26T01:58:50.796Z,75.79
2022-07-26T02:01:38.037Z,75.79
2022-07-26T02:04:05.114Z,75.91
2022-07-26T02:06:32.131Z,75.98
2022-07-26T02:09:00.614Z,76.13
2022-07-26T02:11:28.933Z,76.25
2022-07-26T02:13:55.596Z,76.43
2022-07-26T02:16:22.547Z,76.53
2022-07-26T02:18:49.669Z,76.72
2022-07-26T02:21:16.333Z,76.81
2022-07-26T02:23:43.458Z,76.85
2022-07-26T02:26:10.388Z,76.95
2022-07-26T02:28:37.092Z,76.98
2022-07-26T02:31:03.808Z,77.03
2022-07-26T02:33:30.823Z,77.06
2022-07-26T02:35:57.578Z,76.99
2022-07-26T02:38:24.478Z,77.11
2022-07-26T02:40:52.866Z,76.97
2022-07-26T02:43:19.902Z,76.34
2022-07-26T02:46:00.869Z,74.87
2022-07-26T02:48:30.909Z,72.71
2022-07-26T02:50:57.803Z,70.50
2022-07-26T02:53:24.475Z,69.80
2022-07-26T02:55:51.673Z,69.38
2022-07-26T02:58:21.353Z,69.10
2022-07-26T03:00:48.152Z,68.68
2022-07-26T03:03:15.179Z,68.67
2022-07-26T03:05:42.023Z,68.01
2022-07-26T03:08:08.759Z,68.29
2022-07-26T03:10:35.734Z,69.40
2022-07-26T03:13:02.472Z,69.70
2022-07-26T03:15:29.307Z,70.24
2022-07-26T03:17:56.896Z,71.07
2022-07-26T03:20:23.773Z,71.16
2022-07-26T03:22:50.426Z,71.60
2022-07-26T03:25:17.421Z,71.75
2022-07-26T03:27:44.227Z,71.89
2022-07-26T03:30:11.895Z,71.99
2022-07-26T03:32:38.945Z,71.95
2022-07-26T03:35:07.489Z,70.94
2022-07-26T03:37:46.272Z,69.70
2022-07-26T03:40:15.587Z,68.61
2022-07-26T03:42:42.501Z,67.95
2022-07-26T03:45:09.672Z,66.51
2022-07-26T03:47:37.360Z,65.42
2022-07-26T03:50:05.671Z,64.18
2022-07-26T03:52:32.564Z,62.57
2022-07-26T03:54:59.978Z,61.27
2022-07-26T03:57:28.229Z,59.77
2022-07-26T03:59:55.897Z,58.03
2022-07-26T04:02:22.980Z,56.39
2022-07-26T04:04:50.000Z,55.06
2022-07-26T04:07:16.740Z,54.29
2022-07-26T04:09:43.943Z,53.76
2022-07-26T04:12:10.832Z,53.47
2022-07-26T04:14:38.592Z,53.73
2022-07-26T04:17:05.371Z,53.87
2022-07-26T04:19:32.389Z,54.34
2022-07-26T04:22:03.685Z,54.30
2022-07-26T04:24:30.339Z,54.85
2022-07-26T04:26:57.392Z,54.93
2022-07-26T04:29:24.054Z,55.25
2022-07-26T04:31:50.729Z,55.62
2022-07-26T04:34:17.247Z,56.04
2022-07-26T04:36:44.239Z,56.90
2022-07-26T04:39:11.210Z,57.97
2022-07-26T04:41:37.908Z,58.96
2022-07-26T04:44:05.337Z,59.79
2022-07-26T04:46:32.277Z,60.57
2022-07-26T04:48:58.987Z,61.38
2022-07-26T04:51:26.534Z,62.21
2022-07-26T04:53:53.188Z,63.15
2022-07-26T04:56:19.851Z,63.60
2022-07-26T04:58:46.899Z,64.29
2022-07-26T05:01:13.572Z,65.12
2022-07-26T05:03:40.619Z,65.36
2022-07-26T05:06:07.712Z,65.55
2022-07-26T05:08:34.427Z,66.08
2022-07-26T05:11:01.137Z,66.32
2022-07-26T05:13:30.570Z,66.33
2022-07-26T05:15:59.222Z,66.51
2022-07-26T05:18:26.378Z,66.73
2022-07-26T05:20:53.410Z,67.03
2022-07-26T05:23:20.620Z,66.82
2022-07-26T05:25:47.775Z,66.63
2022-07-26T05:28:14.866Z,66.61
2022-07-26T05:30:41.700Z,66.35
2022-07-26T05:33:08.483Z,66.34
2022-07-26T05:35:35.455Z,66.70
2022-07-26T05:38:02.271Z,66.77
2022-07-26T05:40:29.224Z,66.49
2022-07-26T05:42:56.328Z,66.34
2022-07-26T05:45:23.054Z,66.36
2022-07-26T05:47:50.869Z,66.07
2022-07-26T05:50:17.968Z,66.27
2022-07-26T05:52:44.689Z,65.91
2022-07-26T05:55:11.983Z,65.56
2022-07-26T05:57:42.064Z,65.54
2022-07-26T06:00:09.753Z,65.83
2022-07-26T06:02:38.688Z,65.65
2022-07-26T06:05:05.936Z,65.51
2022-07-26T06:07:34.069Z,65.94
2022-07-26T06:10:00.720Z,65.13
2022-07-26T06:12:27.688Z,64.56
2022-07-26T06:14:54.301Z,64.29
2022-07-26T06:17:21.153Z,64.35
2022-07-26T06:19:48.363Z,64.56
2022-07-26T06:22:15.388Z,64.71
2022-07-26T06:24:42.280Z,64.73
2022-07-26T06:27:09.267Z,64.54
2022-07-26T06:29:36.023Z,64.74
2022-07-26T06:32:02.837Z,65.22
2022-07-26T06:34:30.065Z,64.88
2022-07-26T06:36:56.872Z,65.38
2022-07-26T06:39:23.655Z,65.77
2022-07-26T06:41:50.813Z,65.70
2022-07-26T06:44:22.648Z,65.50
2022-07-26T06:46:49.905Z,65.67
2022-07-26T06:49:21.937Z,65.61
2022-07-26T06:51:49.303Z,65.94
2022-07-26T06:54:16.045Z,65.75
2022-07-26T06:56:43.329Z,66.06
2022-07-26T06:59:10.264Z,66.47
2022-07-26T07:01:55.672Z,66.51
2022-07-26T07:04:24.379Z,65.82
2022-07-26T07:06:51.138Z,64.97
2022-07-26T07:09:19.538Z,64.59
2022-07-26T07:11:49.266Z,64.68
2022-07-26T07:14:19.037Z,64.81
2022-07-26T07:16:46.069Z,65.30
2022-07-26T07:19:13.080Z,65.29
2022-07-26T07:21:39.896Z,65.44
2022-07-26T07:24:07.456Z,65.81
2022-07-26T07:26:34.378Z,64.52
2022-07-26T07:29:04.086Z,64.02
2022-07-26T07:31:49.054Z,64.26
2022-07-26T07:34:18.132Z,64.21
2022-07-26T07:36:47.137Z,63.86
2022-07-26T07:39:17.524Z,64.06
2022-07-26T07:41:46.345Z,62.72
2022-07-26T07:44:14.036Z,63.58
2022-07-26T07:46:40.895Z,63.20
2022-07-26T07:49:08.081Z,62.88
2022-07-26T07:51:36.264Z,62.95
2022-07-26T07:54:05.677Z,63.03
2022-07-26T07:56:33.586Z,62.49
2022-07-26T07:59:00.735Z,61.62
2022-07-26T08:01:39.586Z,61.68
2022-07-26T08:04:09.256Z,60.80
2022-07-26T08:06:37.056Z,60.61
2022-07-26T08:09:05.577Z,60.93
2022-07-26T08:11:34.268Z,60.73
2022-07-26T08:14:01.796Z,61.37
2022-07-26T08:16:28.774Z,61.33
2022-07-26T08:18:57.730Z,60.28
2022-07-26T08:21:35.884Z,60.24
2022-07-26T08:24:03.294Z,60.91
2022-07-26T08:26:30.131Z,60.22
2022-07-26T08:29:09.885Z,59.91
2022-07-26T08:31:37.052Z,59.73
2022-07-26T08:34:03.837Z,59.01
2022-07-26T08:36:32.596Z,59.00
2022-07-26T08:39:00.963Z,59.37
2022-07-26T08:41:28.437Z,59.21
2022-07-26T08:43:55.116Z,58.68
2022-07-26T08:46:25.428Z,58.02
2022-07-26T08:48:54.039Z,57.84
2022-07-26T08:51:22.888Z,58.36
2022-07-26T08:53:54.265Z,58.24
2022-07-26T08:56:21.135Z,57.09
2022-07-26T08:58:47.935Z,57.43
2022-07-26T09:01:15.296Z,56.41
2022-07-26T09:03:43.425Z,56.56
2022-07-26T09:06:19.054Z,56.34
2022-07-26T09:08:49.579Z,55.46
2022-07-26T09:11:33.183Z,55.79
2022-07-26T09:14:03.309Z,56.26
2022-07-26T09:16:30.632Z,54.93
2022-07-26T09:19:22.332Z,54.63
2022-07-26T09:21:49.887Z,55.72
2022-07-26T09:24:36.740Z,55.79
2022-07-26T09:27:06.402Z,54.95
2022-07-26T09:29:46.301Z,54.30
2022-07-26T09:32:17.179Z,54.52
2022-07-26T09:34:52.620Z,54.47
2022-07-26T09:37:34.942Z,54.18
2022-07-26T09:40:05.257Z,54.08
2022-07-26T09:42:32.438Z,54.53
2022-07-26T09:44:59.697Z,54.39
2022-07-26T09:47:37.886Z,54.19
2022-07-26T09:50:16.570Z,54.14
2022-07-26T09:53:17.637Z,52.37
2022-07-26T09:55:45.249Z,53.21
2022-07-26T09:58:17.496Z,52.97
2022-07-26T10:00:44.933Z,52.14
2022-07-26T10:03:12.849Z,52.63
2022-07-26T10:05:39.762Z,52.03
2022-07-26T10:08:07.978Z,50.96
2022-07-26T10:10:40.237Z,51.54
2022-07-26T10:13:08.557Z,49.97
2022-07-26T10:15:46.600Z,51.12
2022-07-26T10:18:39.227Z,51.28
2022-07-26T10:21:16.843Z,50.81
2022-07-26T10:23:49.062Z,49.21
2022-07-26T10:26:45.607Z,50.21
2022-07-26T10:29:18.289Z,49.94
2022-07-26T10:32:00.541Z,48.71
2022-07-26T10:34:40.777Z,48.77
2022-07-26T10:37:21.655Z,49.15
2022-07-26T10:39:48.568Z,49.59
2022-07-26T10:42:15.509Z,48.33
2022-07-26T10:44:45.276Z,49.13
2022-07-26T10:47:18.549Z,49.62
2022-07-26T10:49:57.437Z,47.73
2022-07-26T10:52:28.029Z,48.09
2022-07-26T10:55:01.185Z,47.47
2022-07-26T10:57:33.778Z,47.96
2022-07-26T11:00:02.127Z,48.01
2022-07-26T11:02:32.716Z,47.61
2022-07-26T11:05:12.641Z,48.25
2022-07-26T11:07:55.399Z,47.41
2022-07-26T11:10:27.716Z,47.43
2022-07-26T11:12:59.689Z,47.84
2022-07-26T11:15:26.527Z,48.02
2022-07-26T11:18:06.314Z,46.38
2022-07-26T11:20:33.418Z,46.95
2022-07-26T11:23:00.259Z,46.75
2022-07-26T11:25:27.099Z,46.13
2022-07-26T11:28:07.294Z,46.44
2022-07-26T11:30:35.103Z,44.78
2022-07-26T11:33:02.140Z,45.16
2022-07-26T11:35:30.002Z,45.12
2022-07-26T11:38:11.235Z,44.90
2022-07-26T11:40:47.177Z,44.16
2022-07-26T11:43:14.847Z,44.55
2022-07-26T11:45:41.879Z,43.02
2022-07-26T11:48:08.624Z,42.96
2022-07-26T11:50:35.353Z,44.12
2022-07-26T11:53:02.315Z,43.51
2022-07-26T11:55:30.571Z,43.03
2022-07-26T11:58:05.066Z,41.00
2022-07-26T12:00:32.180Z,42.96
2022-07-26T12:02:59.354Z,41.80
2022-07-26T12:05:27.636Z,41.32
2022-07-26T12:07:57.040Z,39.92
2022-07-26T12:10:24.340Z,40.22
2022-07-26T12:13:06.647Z,40.64
2022-07-26T12:15:50.275Z,41.94
2022-07-26T12:18:29.050Z,41.52
2022-07-26T12:21:02.157Z,41.05
2022-07-26T12:23:42.468Z,40.98
2022-07-26T12:26:27.890Z,41.50
2022-07-26T12:28:56.008Z,41.56
2022-07-26T12:31:26.123Z,40.71
2022-07-26T12:33:53.026Z,40.85
2022-07-26T12:36:28.434Z,41.79
2022-07-26T12:39:00.439Z,41.41
2022-07-26T12:41:31.129Z,39.46
2022-07-26T12:43:59.639Z,41.60
2022-07-26T12:46:26.544Z,41.23
2022-07-26T12:48:56.831Z,40.79
2022-07-26T12:51:27.466Z,37.59
2022-07-26T12:53:54.959Z,37.46
2022-07-26T12:56:21.898Z,36.80
2022-07-26T12:58:49.413Z,36.91
2022-07-26T13:01:17.250Z,37.47
2022-07-26T13:03:44.340Z,37.90
2022-07-26T13:06:12.691Z,37.65
2022-07-26T13:08:41.783Z,37.94
2022-07-26T13:11:08.765Z,38.74
2022-07-26T13:13:35.860Z,40.03
2022-07-26T13:16:09.604Z,40.50
2022-07-26T13:18:39.192Z,40.90
2022-07-26T13:21:06.066Z,40.94
2022-07-26T13:23:32.821Z,40.90
2022-07-26T13:26:03.616Z,41.19
2022-07-26T13:28:31.073Z,40.59
2022-07-26T13:30:57.798Z,40.13
2022-07-26T13:33:24.813Z,40.11
2022-07-26T13:35:51.533Z,40.50
2022-07-26T13:38:19.694Z,40.39
2022-07-26T13:40:46.691Z,40.61
2022-07-26T13:43:13.365Z,40.95
2022-07-26T13:45:40.131Z,40.39
2022-07-26T13:48:07.697Z,40.18
2022-07-26T13:50:34.514Z,40.45
2022-07-26T13:53:01.312Z,40.01
2022-07-26T13:55:28.576Z,40.21
2022-07-26T13:57:57.262Z,39.83
2022-07-26T14:00:29.098Z,39.57
2022-07-26T14:03:00.313Z,38.70
2022-07-26T14:05:29.789Z,38.36
2022-07-26T14:07:56.839Z,38.57
2022-07-26T14:10:24.721Z,38.83
2022-07-26T14:12:52.106Z,39.27
2022-07-26T14:15:22.766Z,39.58
2022-07-26T14:17:51.598Z,39.37
2022-07-26T14:20:18.787Z,39.75
2022-07-26T14:22:45.828Z,39.80
2022-07-26T14:25:12.612Z,39.46
2022-07-26T14:27:39.384Z,40.03
2022-07-26T14:30:07.066Z,41.16
2022-07-26T14:32:34.001Z,41.75
2022-07-26T14:35:00.708Z,40.84
2022-07-26T14:37:44.545Z,40.59
2022-07-26T14:40:17.912Z,39.73
2022-07-26T14:42:45.971Z,39.10
2022-07-26T14:45:14.164Z,38.11
2022-07-26T14:47:41.072Z,38.13
2022-07-26T14:50:09.531Z,39.01
2022-07-26T14:52:47.634Z,39.72
2022-07-26T14:55:19.192Z,41.13
2022-07-26T14:57:49.813Z,41.57
2022-07-26T15:00:17.938Z,41.80
2022-07-26T15:02:46.264Z,42.20
2022-07-26T15:05:13.930Z,42.18
2022-07-26T15:07:42.092Z,42.50
2022-07-26T15:10:10.921Z,42.18
2022-07-26T15:12:38.008Z,42.05
2022-07-26T15:15:06.617Z,41.25
2022-07-26T15:17:33.316Z,41.85
2022-07-26T15:20:00.190Z,41.72
2022-07-26T15:22:27.277Z,39.59
2022-07-26T15:24:53.922Z,38.90
2022-07-26T15:27:20.754Z,37.66
2022-07-26T15:29:49.641Z,38.50
2022-07-26T15:32:16.612Z,39.74
2022-07-26T15:34:43.386Z,40.17
2022-07-26T15:37:10.436Z,39.88
2022-07-26T15:39:37.201Z,40.14
2022-07-26T15:42:07.538Z,40.54
2022-07-26T15:44:37.517Z,39.77
2022-07-26T15:47:05.266Z,39.75
2022-07-26T15:49:33.121Z,40.24
2022-07-26T15:52:01.083Z,40.88
2022-07-26T15:54:28.028Z,40.41
2022-07-26T15:56:54.842Z,41.42
2022-07-26T15:59:21.903Z,41.27
2022-07-26T16:01:49.146Z,41.68
2022-07-26T16:04:16.244Z,42.51
2022-07-26T16:06:43.086Z,42.06
2022-07-26T16:09:19.084Z,40.63
2022-07-26T16:11:47.165Z,41.34
2022-07-26T16:14:14.702Z,41.26
2022-07-26T16:16:41.537Z,41.46
2022-07-26T16:19:08.859Z,41.85
2022-07-26T16:21:37.103Z,40.50
2022-07-26T16:24:07.102Z,40.00
2022-07-26T16:26:35.615Z,40.81
2022-07-26T16:29:02.852Z,40.32
2022-07-26T16:31:31.221Z,41.45
2022-07-26T16:33:58.422Z,41.44
2022-07-26T16:36:25.631Z,41.81
2022-07-26T16:38:52.385Z,42.48
2022-07-26T16:41:19.540Z,42.53
2022-07-26T16:43:46.349Z,42.60
2022-07-26T16:46:13.410Z,42.57
2022-07-26T16:48:40.513Z,41.96
2022-07-26T16:51:07.381Z,42.12
2022-07-26T16:53:34.221Z,42.62
2022-07-26T16:56:01.248Z,42.84
2022-07-26T16:58:27.962Z,43.03
2022-07-26T17:00:55.011Z,42.74
2022-07-26T17:03:22.065Z,42.30
2022-07-26T17:05:48.753Z,42.34
2022-07-26T17:08:15.993Z,42.08
2022-07-26T17:10:43.332Z,41.79
2022-07-26T17:13:12.934Z,42.29
2022-07-26T17:15:39.690Z,41.96
2022-07-26T17:18:06.675Z,41.96
2022-07-26T17:20:33.405Z,42.49
2022-07-26T17:23:00.208Z,42.60
2022-07-26T17:25:27.443Z,42.77
2022-07-26T17:27:54.244Z,43.30
2022-07-26T17:30:21.091Z,43.35
2022-07-26T17:32:48.129Z,43.53
2022-07-26T17:35:15.021Z,43.95
2022-07-26T17:37:41.840Z,43.74
2022-07-26T17:40:10.996Z,43.46
2022-07-26T17:42:38.667Z,43.67
2022-07-26T17:45:06.554Z,44.10
2022-07-26T17:47:33.607Z,44.10
2022-07-26T17:50:34.094Z,43.56
2022-07-26T17:52:50.730Z,43.47
2022-07-26T17:55:20.867Z,43.42
2022-07-26T17:57:49.619Z,43.55
2022-07-26T18:00:19.825Z,43.34
2022-07-26T18:02:47.767Z,43.58
2022-07-26T18:05:14.853Z,43.76
2022-07-26T18:07:41.895Z,43.76
2022-07-26T18:10:11.106Z,43.82
2022-07-26T18:12:38.185Z,43.86
2022-07-26T18:15:07.029Z,44.09
2022-07-26T18:17:34.182Z,44.21
2022-07-26T18:20:00.887Z,44.54
2022-07-26T18:22:27.584Z,44.49
2022-07-26T18:24:54.722Z,44.81
2022-07-26T18:27:22.314Z,44.66
2022-07-26T18:29:49.419Z,44.88
2022-07-26T18:32:16.460Z,44.86
2022-07-26T18:34:51.549Z,45.53
2022-07-26T18:37:20.771Z,45.58
2022-07-26T18:39:48.052Z,45.54
2022-07-26T18:42:15.137Z,45.74
2022-07-26T18:44:42.255Z,45.82
2022-07-26T18:47:09.481Z,46.11
2022-07-26T18:49:36.315Z,46.07
2022-07-26T18:52:08.552Z,46.32
2022-07-26T18:54:36.311Z,46.70
2022-07-26T18:57:04.804Z,46.81
2022-07-26T18:59:31.879Z,47.74
2022-07-26T19:02:00.058Z,47.25
2022-07-26T19:04:28.341Z,47.61
2022-07-26T19:06:55.318Z,47.83
2022-07-26T19:09:22.029Z,48.15
2022-07-26T19:11:49.217Z,48.27
2022-07-26T19:14:15.959Z,48.55
2022-07-26T19:16:42.649Z,49.41
2022-07-26T19:19:10.285Z,49.46
2022-07-26T19:21:37.987Z,50.04
2022-07-26T19:24:05.325Z,50.25
2022-07-26T19:26:32.342Z,50.54
2022-07-26T19:28:59.185Z,50.80
2022-07-26T19:31:26.036Z,51.41
2022-07-26T19:33:53.313Z,52.17
2022-07-26T19:36:25.817Z,51.97
2022-07-26T19:38:54.324Z,52.49
2022-07-26T19:41:23.794Z,52.75
2022-07-26T19:43:50.612Z,52.36
2022-07-26T19:46:17.650Z,52.63
2022-07-26T19:48:44.711Z,52.79
2022-07-26T19:51:11.682Z,52.98
2022-07-26T19:53:38.691Z,52.95
2022-07-26T19:56:06.237Z,53.49
2022-07-26T19:58:33.706Z,53.77
2022-07-26T20:01:00.962Z,53.90
2022-07-26T20:03:28.155Z,54.08
2022-07-26T20:05:56.849Z,54.28
2022-07-26T20:08:24.589Z,54.57
2022-07-26T20:10:52.169Z,54.18
2022-07-26T20:13:19.008Z,54.89
2022-07-26T20:15:47.295Z,55.79
2022-07-26T20:18:14.267Z,56.04
2022-07-26T20:20:41.103Z,56.28
2022-07-26T20:23:10.888Z,57.27
2022-07-26T20:25:37.952Z,58.24
2022-07-26T20:28:04.957Z,59.17
2022-07-26T20:30:31.763Z,59.98
2022-07-26T20:32:58.828Z,59.22
2022-07-26T20:35:25.547Z,59.03
2022-07-26T20:37:52.197Z,59.32
2022-07-26T20:40:19.240Z,60.09
2022-07-26T20:42:50.103Z,60.00
2022-07-26T20:58:27.124Z,59.16
2022-07-26T21:00:54.343Z,59.16
2022-07-26T21:03:21.154Z,60.17
2022-07-26T21:05:47.857Z,59.89
2022-07-26T21:08:14.886Z,59.88
2022-07-26T21:17:57.481Z,60.32
2022-07-26T21:20:24.811Z,60.23
2022-07-26T21:22:51.475Z,60.60
2022-07-26T21:25:18.137Z,60.53
2022-07-26T21:27:45.147Z,61.13
2022-07-26T21:30:12.350Z,61.91
2022-07-26T21:32:39.092Z,61.84
2022-07-26T21:35:06.474Z,62.12
2022-07-26T21:37:33.234Z,62.36
2022-07-26T21:40:00.906Z,62.19
2022-07-26T21:42:28.345Z,62.42
2022-07-26T21:44:55.004Z,62.04
2022-07-26T21:47:21.689Z,62.35
2022-07-26T21:49:49.166Z,63.32
2022-07-26T21:52:16.979Z,62.92
2022-07-26T21:54:43.681Z,62.30
2022-07-26T21:57:10.699Z,62.08
2022-07-26T21:59:37.355Z,62.52
2022-07-26T22:02:04.144Z,63.03
2022-07-26T22:04:31.284Z,63.34
2022-07-26T22:06:57.954Z,63.17
2022-07-26T22:09:24.780Z,63.39
2022-07-26T22:11:53.380Z,63.70
2022-07-26T22:14:21.092Z,63.89
2022-07-26T22:16:49.244Z,65.22
2022-07-26T22:19:16.457Z,65.30
2022-07-26T22:21:43.278Z,65.62
2022-07-26T22:24:10.104Z,65.89
2022-07-26T22:26:37.219Z,65.77
2022-07-26T22:29:04.130Z,65.69
2022-07-26T22:31:31.036Z,66.18
2022-07-26T22:33:58.023Z,66.34
2022-07-26T22:36:24.867Z,66.96
2022-07-26T22:38:51.544Z,66.76
2022-07-26T22:41:18.673Z,67.67
2022-07-26T22:43:45.399Z,68.08
2022-07-26T22:46:12.079Z,68.24
2022-07-26T22:48:42.180Z,68.37
2022-07-26T22:51:11.189Z,68.90
2022-07-26T22:53:37.896Z,68.64
2022-07-26T22:56:05.196Z,68.63
2022-07-26T22:58:31.953Z,69.27
2022-07-26T23:00:58.819Z,70.43
2022-07-26T23:03:25.763Z,70.07
2022-07-26T23:05:54.827Z,69.73
2022-07-26T23:08:47.199Z,69.72
2022-07-26T23:11:08.627Z,70.00
2022-07-26T23:13:35.619Z,70.05
2022-07-26T23:16:02.435Z,70.20
2022-07-26T23:18:31.188Z,70.02
2022-07-26T23:20:57.834Z,70.25
2022-07-26T23:23:27.797Z,69.58
2022-07-26T23:25:58.239Z,69.33
2022-07-26T23:28:36.944Z,69.68
2022-07-26T23:31:10.860Z,69.20
2022-07-26T23:33:50.688Z,69.24
2022-07-26T23:36:22.174Z,69.79
2022-07-26T23:38:48.839Z,70.28
2022-07-26T23:41:15.562Z,70.47
2022-07-26T23:43:42.591Z,70.33
2022-07-26T23:46:09.282Z,70.08
2022-07-26T23:48:36.025Z,70.52
2022-07-26T23:51:03.034Z,71.07
2022-07-26T23:53:30.124Z,70.56
2022-07-26T23:55:56.817Z,70.54
2022-07-26T23:58:23.865Z,71.47
